Terminal Aerodrome Forecast
Issued by NWS Corpus Christi, TX

Home | Current Version | Previous Version | Text Only | Print | Product List | Glossary On
Versions: 1 2 3 4 5 6 7 8 9 10 11 12 13 14 15 16 17 18 19 20 21 22 23
000
FTUS44 KCRP 051052 AAC
TAFVCT
TAF AMD
KVCT 051052Z 0511/0606 36011KT 6SM -RA BR SCT007 BKN025 OVC060
      TEMPO 0511/0513 3SM +RA BR BKN007
     FM051600 33013KT P6SM BKN025 OVC060
     FM051900 31012KT P6SM SCT035 BKN060
     FM060100 24008KT P6SM FEW025 SCT100=

USA.gov is the U.S. government's official web portal to all federal, state and local government web resources and services.